Terminal Aerodrome Forecast
Issued by NWS

Home | Current Version | Previous Version | Text Only | Print | Product List | Glossary On
Versions: 1 2 3 4 5 6 7 8 9 10 11 12 13 14 15 16 17 18 19 20 21 22 23 24 25 26 27 28 29 30 31 32 33
000
FTAK31 PANC 262340
TAFADL
TAF
PADL 262340Z 2700/2724 18012G22KT P6SM VCSH FEW015 BKN030 OVC060
      TEMPO 2700/2704 -SHRA BKN015
     FM271000 16008G15KT 4SM -SNRA BR SCT003 OVC007
     FM271400 16008G15KT 3SM -SNRA BR SCT001 OVC003
     FM271700 20012G20KT P6SM -SHRA BKN025 BKN040=

USA.gov is the U.S. government's official web portal to all federal, state and local government web resources and services.